Time;durP1;ratioP1;P1;durP2;ratioP2;P2;SDS_P1;SDS_P2;PMS_P1;PMS_P2;Temp;Humidity;BMP_temperature;BMP_pressure;BME280_temperature;BME280_humidity;BME280_pressure;Samples;Min_cycle;Max_cycle;Signal;HPM_P1;HPM_P2
2023/02/09 00:00:38;;;;;;;15.20;8.07;;;-2.10;99.90;;;;;;4887736;29;20193;-73
2023/02/09 00:03:04;;;;;;;14.63;9.23;;;-2.10;99.90;;;;;;4885442;29;20216;-70
2023/02/09 00:05:29;;;;;;;11.83;7.27;;;-2.20;99.90;;;;;;4888826;29;20703;-72
2023/02/09 00:07:55;;;;;;;12.57;7.33;;;-2.20;99.90;;;;;;4887577;29;20558;-75
2023/02/09 00:10:21;;;;;;;13.13;7.13;;;-2.20;99.90;;;;;;4888742;29;20184;-72
2023/02/09 00:13:31;;;;;;;10.87;7.80;;;-2.20;99.90;;;;;;4886743;29;20204;-73
2023/02/09 00:15:32;;;;;;;14.83;8.10;;;-2.20;99.90;;;;;;4887876;29;20197;-72
2023/02/09 00:17:57;;;;;;;9.60;7.27;;;-2.20;99.90;;;;;;4887173;29;20433;-72
2023/02/09 00:20:23;;;;;;;16.17;9.13;;;-2.20;99.90;;;;;;4887419;29;20181;-74
2023/02/09 00:22:49;;;;;;;10.87;7.50;;;-2.30;99.90;;;;;;4887293;29;20244;-72
2023/02/09 00:25:14;;;;;;;11.13;7.17;;;-2.30;99.90;;;;;;4886770;29;20184;-72
2023/02/09 00:27:40;;;;;;;18.70;11.30;;;-2.30;99.90;;;;;;4887000;29;20181;-72
2023/02/09 00:30:06;;;;;;;10.17;6.87;;;-2.30;99.90;;;;;;4886596;29;20199;-74
2023/02/09 00:32:32;;;;;;;18.00;7.77;;;-2.30;99.90;;;;;;4888120;29;20250;-72
2023/02/09 00:34:57;;;;;;;14.20;8.40;;;-2.30;99.90;;;;;;4886767;29;20453;-73
2023/02/09 00:37:23;;;;;;;15.00;7.80;;;-2.30;99.90;;;;;;4887171;29;20477;-73
2023/02/09 00:39:48;;;;;;;15.17;8.70;;;-2.40;99.90;;;;;;4887109;29;20192;-73
2023/02/09 00:42:14;;;;;;;17.10;8.63;;;-2.40;99.90;;;;;;4886232;29;20209;-72
2023/02/09 00:44:40;;;;;;;12.00;7.80;;;-2.40;99.90;;;;;;4887560;29;20208;-73
2023/02/09 00:47:07;;;;;;;12.00;6.77;;;-2.40;99.90;;;;;;4887206;29;20185;-74
2023/02/09 00:49:33;;;;;;;10.70;6.57;;;-2.50;99.90;;;;;;4888091;29;20512;-73
2023/02/09 00:51:59;;;;;;;13.97;7.87;;;-2.50;99.90;;;;;;4884457;29;20897;-72
2023/02/09 00:54:25;;;;;;;11.20;8.00;;;-2.50;99.90;;;;;;4886908;29;20193;-73
2023/02/09 00:56:50;;;;;;;10.97;6.90;;;-2.40;99.90;;;;;;4896653;29;20180;-72
2023/02/09 00:59:16;;;;;;;15.53;8.03;;;-2.50;99.90;;;;;;4890191;29;20792;-73
2023/02/09 01:01:42;;;;;;;13.87;8.60;;;-2.50;99.90;;;;;;4888003;29;20465;-72
2023/02/09 01:04:08;;;;;;;17.30;7.77;;;-2.60;99.90;;;;;;4889072;29;20189;-73
2023/02/09 01:06:34;;;;;;;8.43;7.63;;;-2.60;99.90;;;;;;4888469;29;20516;-71
2023/02/09 01:09:00;;;;;;;14.33;6.70;;;-2.70;99.90;;;;;;4885767;29;20505;-72
2023/02/09 01:11:28;;;;;;;10.60;7.97;;;-2.60;99.90;;;;;;4886989;29;20216;-72
2023/02/09 01:13:56;;;;;;;9.60;6.20;;;-2.60;99.90;;;;;;4889121;29;20751;-72
2023/02/09 01:16:22;;;;;;;10.00;6.60;;;-2.70;99.90;;;;;;4888787;29;20584;-73
2023/02/09 01:18:48;;;;;;;17.20;9.23;;;-2.70;99.90;;;;;;4884247;29;20417;-71
2023/02/09 01:21:17;;;;;;;12.30;7.60;;;-2.70;99.90;;;;;;4893549;29;20612;-72
2023/02/09 01:23:43;;;;;;;10.63;6.67;;;-2.70;99.90;;;;;;4882988;29;20447;-74
2023/02/09 01:26:10;;;;;;;15.67;8.53;;;-2.70;99.90;;;;;;4889376;29;20412;-72
2023/02/09 01:28:36;;;;;;;15.87;8.70;;;-2.70;99.90;;;;;;4882206;29;20418;-72
2023/02/09 01:31:03;;;;;;;11.43;8.93;;;-2.80;99.90;;;;;;4890047;29;20495;-71
2023/02/09 01:33:29;;;;;;;14.27;9.27;;;-2.80;99.90;;;;;;4895464;29;20441;-73
2023/02/09 01:35:58;;;;;;;13.07;8.23;;;-2.80;99.90;;;;;;4891661;29;20431;-71
2023/02/09 01:38:24;;;;;;;10.30;6.47;;;-2.80;99.90;;;;;;4896309;29;20420;-73
2023/02/09 01:40:50;;;;;;;11.57;7.97;;;-2.70;99.90;;;;;;4896317;29;20547;-73
2023/02/09 01:43:16;;;;;;;9.77;7.10;;;-2.70;99.90;;;;;;4896214;29;20488;-73
2023/02/09 01:45:47;;;;;;;13.77;7.70;;;-2.70;99.90;;;;;;4896343;29;20416;-72
2023/02/09 01:48:14;;;;;;;12.33;6.97;;;-2.70;99.90;;;;;;4896878;29;20427;-75
2023/02/09 01:50:44;;;;;;;11.63;7.50;;;-2.80;99.90;;;;;;4892780;29;20441;-72
2023/02/09 01:53:11;;;;;;;12.07;7.10;;;-2.80;99.90;;;;;;4897576;29;20850;-72
2023/02/09 01:55:44;;;;;;;13.30;7.73;;;-2.90;99.90;;;;;;4892896;29;20424;-74
2023/02/09 01:58:13;;;;;;;13.40;6.77;;;-2.90;99.90;;;;;;4897111;29;20412;-74
2023/02/09 02:00:39;;;;;;;7.70;6.70;;;-2.90;99.90;;;;;;4895620;29;20412;-71
2023/02/09 02:03:08;;;;;;;11.77;7.10;;;-2.90;99.90;;;;;;4910212;23;20503;-67
2023/02/09 02:05:37;;;;;;;16.30;6.87;;;-2.90;99.90;;;;;;4912445;29;20230;-67
2023/02/09 02:08:30;;;;;;;15.73;7.20;;;-2.90;99.90;;;;;;4906776;29;20413;-67
2023/02/09 02:10:57;;;;;;;13.40;7.90;;;-3.00;99.90;;;;;;4902860;29;20409;-67
2023/02/09 02:13:22;;;;;;;12.57;6.47;;;-3.00;99.90;;;;;;4904850;29;20431;-67
2023/02/09 02:16:15;;;;;;;14.20;7.70;;;-3.00;99.90;;;;;;4901275;29;20439;-67
2023/02/09 02:19:02;;;;;;;14.50;7.83;;;-2.90;99.90;;;;;;4891154;29;20235;-66
2023/02/09 02:22:03;;;;;;;12.23;5.70;;;-2.90;99.90;;;;;;4890509;29;20475;-66
2023/02/09 02:24:48;;;;;;;9.50;5.80;;;-2.90;99.90;;;;;;4893519;29;20455;-66
2023/02/09 02:27:29;;;;;;;16.40;7.80;;;-2.90;99.90;;;;;;4892072;29;20432;-67
2023/02/09 02:30:13;;;;;;;11.63;6.70;;;-2.90;99.90;;;;;;4892930;29;20503;-66
2023/02/09 02:32:57;;;;;;;12.03;5.50;;;-2.90;99.90;;;;;;4893025;29;20463;-66
2023/02/09 02:35:23;;;;;;;11.67;6.90;;;-2.90;99.90;;;;;;4896155;29;20435;-67
2023/02/09 02:37:54;;;;;;;9.10;6.70;;;-2.90;99.90;;;;;;4897859;29;20535;-66
2023/02/09 02:40:20;;;;;;;12.00;6.90;;;-2.90;99.90;;;;;;4894369;29;20265;-66
2023/02/09 02:43:11;;;;;;;14.60;5.93;;;-2.90;99.90;;;;;;4895159;29;20852;-66
2023/02/09 02:45:47;;;;;;;9.43;7.00;;;-2.90;99.90;;;;;;4904543;29;20200;-66
2023/02/09 02:48:35;;;;;;;9.13;7.00;;;-2.90;99.90;;;;;;4895591;29;20433;-66
2023/02/09 02:51:09;;;;;;;9.13;4.80;;;-3.00;99.90;;;;;;4897203;29;20440;-66
2023/02/09 02:53:38;;;;;;;11.23;6.57;;;-3.00;99.90;;;;;;4907867;29;20447;-66
2023/02/09 02:56:13;;;;;;;13.63;6.87;;;-3.00;99.90;;;;;;4909745;29;20514;-67
2023/02/09 02:58:42;;;;;;;9.73;6.20;;;-3.00;99.90;;;;;;4907104;29;20659;-66
2023/02/09 03:01:12;;;;;;;9.37;6.07;;;-3.00;99.90;;;;;;4904856;29;20452;-66
2023/02/09 03:03:38;;;;;;;10.37;5.87;;;-3.00;99.90;;;;;;4908915;29;20467;-66
2023/02/09 03:06:06;;;;;;;10.80;6.00;;;-2.90;99.90;;;;;;4913905;29;20411;-66
2023/02/09 03:08:52;;;;;;;12.97;6.50;;;-2.90;99.90;;;;;;4914378;29;20443;-66
2023/02/09 03:11:20;;;;;;;10.87;6.57;;;-2.90;99.90;;;;;;4908307;29;20457;-67
2023/02/09 03:14:29;;;;;;;6.70;5.10;;;-2.90;99.90;;;;;;4908553;29;20442;-66
2023/02/09 03:17:10;;;;;;;8.33;6.10;;;-2.90;99.90;;;;;;4907900;29;20483;-66
2023/02/09 03:19:56;;;;;;;11.93;6.63;;;-2.80;99.90;;;;;;4907933;29;20996;-66
2023/02/09 03:22:30;;;;;;;9.63;6.40;;;-2.90;99.90;;;;;;4910008;29;20881;-66
2023/02/09 03:25:19;;;;;;;8.97;6.20;;;-2.80;99.90;;;;;;4913569;29;20435;-66
2023/02/09 03:28:13;;;;;;;17.20;7.47;;;-2.90;99.90;;;;;;4905237;29;20412;-67
2023/02/09 03:30:41;;;;;;;13.83;6.80;;;-2.80;99.90;;;;;;4896745;29;20444;-67
2023/02/09 03:33:20;;;;;;;10.07;7.03;;;-2.80;99.90;;;;;;4906964;29;21003;-66
2023/02/09 03:35:49;;;;;;;7.67;6.13;;;-2.80;99.90;;;;;;4907598;29;20411;-67
2023/02/09 03:38:15;;;;;;;8.77;7.03;;;-2.80;99.90;;;;;;4906695;29;20443;-67
2023/02/09 03:40:41;;;;;;;12.93;6.20;;;-2.80;99.90;;;;;;4912323;29;20880;-66
2023/02/09 03:43:06;;;;;;;13.70;6.47;;;-2.70;99.90;;;;;;4915129;29;20454;-66
2023/02/09 03:45:32;;;;;;;8.73;6.10;;;-2.70;99.90;;;;;;4911770;29;20564;-66
2023/02/09 03:47:58;;;;;;;11.30;5.70;;;-2.80;99.90;;;;;;4912345;29;20539;-66
2023/02/09 03:50:23;;;;;;;10.67;6.77;;;-2.80;99.90;;;;;;4911414;29;20238;-66
2023/02/09 03:52:49;;;;;;;11.80;6.63;;;-2.80;99.90;;;;;;4910705;29;20207;-67
2023/02/09 03:55:15;;;;;;;7.60;4.90;;;-2.90;99.90;;;;;;4900306;29;20712;-67
2023/02/09 03:57:41;;;;;;;8.47;6.17;;;-2.90;99.90;;;;;;4904956;29;20428;-66
2023/02/09 04:00:07;;;;;;;11.90;6.10;;;-2.90;99.90;;;;;;4914588;29;20429;-67
2023/02/09 04:02:33;;;;;;;10.13;6.53;;;-2.80;99.90;;;;;;4910819;29;20246;-65
2023/02/09 04:04:58;;;;;;;9.57;4.97;;;-2.90;99.90;;;;;;4913525;29;20424;-66
2023/02/09 04:07:24;;;;;;;10.70;6.00;;;-2.80;99.90;;;;;;4910286;29;20205;-66
2023/02/09 04:09:50;;;;;;;14.93;7.33;;;-2.80;99.90;;;;;;4910998;29;20176;-66
2023/02/09 04:12:15;;;;;;;13.97;6.57;;;-2.90;99.90;;;;;;4906992;29;20224;-66
2023/02/09 04:14:41;;;;;;;13.30;6.97;;;-2.90;99.90;;;;;;4913328;29;20171;-66
2023/02/09 04:17:07;;;;;;;11.23;5.53;;;-2.90;99.90;;;;;;4910468;29;20179;-66
2023/02/09 04:19:32;;;;;;;10.73;7.50;;;-2.90;99.90;;;;;;4911067;29;20271;-66
2023/02/09 04:21:58;;;;;;;10.27;6.20;;;-2.90;99.90;;;;;;4901326;29;20299;-66
2023/02/09 04:24:23;;;;;;;6.60;5.90;;;-3.00;99.90;;;;;;4908272;29;20251;-69
2023/02/09 04:26:49;;;;;;;8.80;5.13;;;-3.00;99.90;;;;;;4910125;29;20267;-66
2023/02/09 04:29:15;;;;;;;7.40;5.90;;;-3.10;99.90;;;;;;4910879;29;20187;-66
2023/02/09 04:31:40;;;;;;;10.63;5.80;;;-3.10;99.90;;;;;;4912614;29;20322;-66
2023/02/09 04:34:06;;;;;;;14.80;6.13;;;-3.10;99.90;;;;;;4909544;29;20306;-66
2023/02/09 04:36:31;;;;;;;13.83;7.07;;;-3.10;99.90;;;;;;4911744;29;20194;-66
2023/02/09 04:38:57;;;;;;;17.60;7.33;;;-3.10;99.90;;;;;;4908394;29;20179;-66
2023/02/09 04:41:22;;;;;;;9.37;5.57;;;-3.20;99.90;;;;;;4910338;29;20724;-66
2023/02/09 04:43:48;;;;;;;7.43;6.10;;;-3.20;99.90;;;;;;4913013;29;20199;-66
2023/02/09 04:46:15;;;;;;;10.77;6.00;;;-3.30;99.90;;;;;;4910000;29;20187;-65
2023/02/09 04:48:41;;;;;;;9.63;5.53;;;-3.30;99.90;;;;;;4912514;29;20176;-65
2023/02/09 04:51:07;;;;;;;13.33;7.40;;;-3.30;99.90;;;;;;4907941;29;20819;-66
2023/02/09 04:53:33;;;;;;;10.47;5.53;;;-3.30;99.90;;;;;;4903264;29;20474;-67
2023/02/09 04:55:58;;;;;;;15.80;7.20;;;-3.40;99.90;;;;;;4897194;29;20439;-66
2023/02/09 05:01:12;;;;;;;18.97;9.40;;;-3.40;99.90;;;;;;4906309;29;20263;-67
2023/02/09 05:03:37;;;;;;;10.40;6.13;;;-3.40;99.90;;;;;;4911256;29;20470;-67
2023/02/09 05:06:04;;;;;;;11.13;7.10;;;-3.50;99.90;;;;;;4912341;29;20755;-67
2023/02/09 05:08:31;;;;;;;10.80;7.33;;;-3.60;99.90;;;;;;4907454;29;20210;-67
2023/02/09 05:10:57;;;;;;;12.50;6.57;;;-3.60;99.90;;;;;;4910829;29;20428;-67
2023/02/09 05:13:24;;;;;;;13.57;6.60;;;-3.60;99.90;;;;;;4909465;29;20962;-66
2023/02/09 05:15:49;;;;;;;8.40;5.57;;;-3.60;99.90;;;;;;4909896;29;20421;-68
2023/02/09 05:18:15;;;;;;;11.70;6.83;;;-3.60;99.90;;;;;;4906873;29;20861;-67
2023/02/09 05:20:42;;;;;;;18.47;9.20;;;-3.60;99.90;;;;;;4910041;29;20320;-66
2023/02/09 05:23:07;;;;;;;17.33;7.57;;;-3.60;99.90;;;;;;4908967;29;20450;-67
2023/02/09 05:25:33;;;;;;;8.53;5.60;;;-3.50;99.90;;;;;;4914707;29;20412;-67
2023/02/09 05:27:59;;;;;;;9.00;6.40;;;-3.60;99.90;;;;;;4909460;29;20176;-67
2023/02/09 05:30:25;;;;;;;11.13;7.07;;;-3.60;99.90;;;;;;4903875;29;20544;-68
2023/02/09 05:32:51;;;;;;;9.20;6.47;;;-3.70;99.90;;;;;;4899287;29;20199;-67
2023/02/09 05:35:17;;;;;;;11.33;7.27;;;-3.70;99.90;;;;;;4905016;29;20424;-67
2023/02/09 05:37:42;;;;;;;7.70;5.83;;;-3.70;99.90;;;;;;4910027;29;20420;-67
2023/02/09 05:40:08;;;;;;;12.50;7.70;;;-3.70;99.90;;;;;;4908314;29;20196;-67
2023/02/09 05:42:34;;;;;;;12.93;6.83;;;-3.70;99.90;;;;;;4912726;29;20204;-67
2023/02/09 05:44:59;;;;;;;11.47;7.87;;;-3.70;99.90;;;;;;4909170;29;20532;-66
2023/02/09 05:47:25;;;;;;;9.47;6.30;;;-3.70;99.90;;;;;;4908500;29;20553;-66
2023/02/09 05:49:51;;;;;;;7.77;5.60;;;-3.60;99.90;;;;;;4919059;29;20235;-66
2023/02/09 05:52:18;;;;;;;12.03;6.60;;;-3.60;99.90;;;;;;4906357;29;20240;-66
2023/02/09 05:54:46;;;;;;;14.23;7.53;;;-3.60;99.90;;;;;;4901798;29;21086;-66
2023/02/09 05:57:12;;;;;;;9.00;6.87;;;-3.50;99.90;;;;;;4908955;29;20943;-66
2023/02/09 05:59:37;;;;;;;12.17;8.53;;;-3.50;99.90;;;;;;4911566;29;20436;-66
2023/02/09 06:02:03;;;;;;;10.70;6.20;;;-3.50;99.90;;;;;;4909034;29;20196;-66
2023/02/09 06:04:29;;;;;;;9.50;7.83;;;-3.50;99.90;;;;;;4911145;29;20215;-66
2023/02/09 06:06:55;;;;;;;16.00;6.50;;;-3.50;99.90;;;;;;4908342;29;20419;-65
2023/02/09 06:09:21;;;;;;;7.23;6.53;;;-3.50;99.90;;;;;;4910606;29;20798;-66
2023/02/09 06:11:46;;;;;;;15.80;6.30;;;-3.50;99.90;;;;;;4909033;29;20420;-66
2023/02/09 06:14:12;;;;;;;11.77;7.30;;;-3.40;99.90;;;;;;4911644;29;20570;-66
2023/02/09 06:16:39;;;;;;;13.20;8.10;;;-3.40;99.90;;;;;;4909036;29;20183;-66
2023/02/09 06:19:05;;;;;;;15.77;5.60;;;-3.50;99.90;;;;;;4910905;29;20266;-67
2023/02/09 06:21:31;;;;;;;12.40;6.70;;;-3.50;99.90;;;;;;4907998;29;20502;-65
2023/02/09 06:23:57;;;;;;;10.27;5.50;;;-3.40;99.90;;;;;;4905003;29;20451;-66
2023/02/09 06:26:23;;;;;;;9.67;7.00;;;-3.40;99.90;;;;;;4907109;29;20480;-66
2023/02/09 06:28:48;;;;;;;12.47;7.50;;;-3.40;99.90;;;;;;4909977;29;20307;-66
2023/02/09 06:31:14;;;;;;;10.23;5.77;;;-3.40;99.90;;;;;;4912361;29;20415;-66
2023/02/09 06:33:40;;;;;;;7.20;6.17;;;-3.40;99.90;;;;;;4908850;29;20222;-66
2023/02/09 06:36:06;;;;;;;10.40;5.83;;;-3.30;99.90;;;;;;4911332;29;20187;-66
2023/02/09 06:38:36;;;;;;;12.97;8.00;;;-3.40;99.90;;;;;;4908017;29;20568;-66
2023/02/09 06:41:02;;;;;;;10.30;7.47;;;-3.40;99.90;;;;;;4910608;29;20452;-66
2023/02/09 06:43:28;;;;;;;13.20;6.40;;;-3.30;99.90;;;;;;4910072;29;20534;-66
2023/02/09 06:45:54;;;;;;;11.27;6.67;;;-3.20;99.90;;;;;;4909548;29;20510;-66
2023/02/09 06:48:19;;;;;;;14.07;6.47;;;-3.30;99.90;;;;;;4911958;29;20176;-67
2023/02/09 06:50:45;;;;;;;9.57;6.83;;;-3.30;99.90;;;;;;4908924;29;20187;-67
2023/02/09 06:53:11;;;;;;;12.70;5.30;;;-3.20;99.90;;;;;;4911160;29;20266;-67
2023/02/09 06:55:37;;;;;;;11.00;7.37;;;-3.10;99.90;;;;;;4907833;29;20685;-66
2023/02/09 06:58:02;;;;;;;14.80;7.03;;;-3.10;99.90;;;;;;4908194;29;20689;-66
2023/02/09 07:00:29;;;;;;;12.53;6.63;;;-3.10;99.90;;;;;;4910487;29;20172;-66
2023/02/09 07:02:55;;;;;;;10.20;6.67;;;-3.00;99.90;;;;;;4909080;29;20605;-66
2023/02/09 07:05:20;;;;;;;10.90;7.47;;;-3.00;99.90;;;;;;4911898;29;20506;-66
2023/02/09 07:07:46;;;;;;;11.63;6.00;;;-2.80;99.90;;;;;;4911837;29;20647;-66
2023/02/09 07:10:13;;;;;;;11.70;6.57;;;-2.20;99.90;;;;;;4914296;29;20252;-67
2023/02/09 07:12:42;;;;;;;11.13;6.80;;;-2.40;99.90;;;;;;4910924;29;20535;-67
2023/02/09 07:15:09;;;;;;;7.87;5.30;;;-2.60;99.90;;;;;;4916150;29;20521;-67
2023/02/09 07:17:34;;;;;;;10.07;6.77;;;-2.50;99.90;;;;;;4907445;29;20423;-67
2023/02/09 07:20:00;;;;;;;12.13;7.23;;;-2.30;99.90;;;;;;4916363;29;20492;-67
2023/02/09 07:22:25;;;;;;;10.83;7.13;;;-2.40;99.90;;;;;;4909661;29;20298;-67
2023/02/09 07:24:51;;;;;;;9.93;5.90;;;-2.50;99.90;;;;;;4913396;29;20486;-67
2023/02/09 07:27:18;;;;;;;12.40;8.00;;;-2.50;99.90;;;;;;4912736;29;20631;-67
2023/02/09 07:29:44;;;;;;;12.80;6.00;;;-2.50;99.90;;;;;;4910895;29;20832;-67
2023/02/09 07:32:10;;;;;;;13.83;7.53;;;-2.50;99.90;;;;;;4915894;29;20452;-67
2023/02/09 07:34:36;;;;;;;11.83;7.40;;;-2.40;99.90;;;;;;4906840;29;20275;-67
2023/02/09 07:37:02;;;;;;;11.57;6.60;;;-2.40;99.90;;;;;;4915892;29;20903;-67
2023/02/09 07:39:28;;;;;;;11.13;6.30;;;-2.30;99.90;;;;;;4909161;29;20442;-67
2023/02/09 07:41:54;;;;;;;10.70;7.30;;;-2.20;99.90;;;;;;4913335;29;20455;-66
2023/02/09 07:44:19;;;;;;;12.77;8.60;;;-2.00;99.90;;;;;;4915343;29;20195;-66
2023/02/09 07:46:45;;;;;;;17.97;8.80;;;-1.70;99.90;;;;;;4910445;29;20168;-66
2023/02/09 07:49:11;;;;;;;11.73;7.10;;;-1.40;99.90;;;;;;4915618;29;20211;-67
2023/02/09 07:51:37;;;;;;;11.07;6.93;;;-1.50;99.90;;;;;;4906937;29;20655;-66
2023/02/09 07:54:03;;;;;;;11.50;7.30;;;-1.70;99.90;;;;;;4911506;29;20596;-66
2023/02/09 07:56:29;;;;;;;13.30;7.90;;;-1.60;99.90;;;;;;4909136;29;20473;-66
2023/02/09 07:58:56;;;;;;;11.50;7.10;;;-1.50;99.90;;;;;;4911817;29;20258;-66
2023/02/09 08:01:22;;;;;;;16.83;6.90;;;-1.40;99.90;;;;;;4915322;29;20354;-68
2023/02/09 08:03:49;;;;;;;15.03;8.60;;;-1.40;99.90;;;;;;4910596;29;20448;-66
2023/02/09 08:08:42;;;;;;;15.07;9.00;;;-1.20;99.90;;;;;;4885462;29;21079;-72
2023/02/09 08:11:08;;;;;;;12.63;8.67;;;-1.10;99.90;;;;;;4897466;29;20445;-70
2023/02/09 08:13:36;;;;;;;12.30;7.50;;;-0.90;99.90;;;;;;4895230;29;20208;-71
2023/02/09 08:16:05;;;;;;;9.70;6.33;;;-0.70;99.90;;;;;;4886395;29;20559;-71
2023/02/09 08:18:39;;;;;;;11.93;9.00;;;-0.70;99.90;;;;;;4888109;29;20433;-70
2023/02/09 08:21:08;;;;;;;12.17;8.43;;;-0.30;99.90;;;;;;4890204;29;20562;-70
2023/02/09 08:23:35;;;;;;;13.17;8.27;;;0.30;99.90;;;;;;4895316;29;20420;-71
2023/02/09 08:26:06;;;;;;;12.57;8.77;;;0.90;99.90;;;;;;4888369;29;20427;-69
2023/02/09 08:28:32;;;;;;;13.53;8.70;;;1.80;99.90;;;;;;4894923;29;20496;-70
2023/02/09 08:30:58;;;;;;;14.63;8.33;;;1.70;99.90;;;;;;4889006;29;20789;-70
2023/02/09 08:33:24;;;;;;;10.33;7.70;;;1.90;99.90;;;;;;4884113;29;20409;-70
2023/02/09 08:35:52;;;;;;;9.93;7.50;;;1.90;99.90;;;;;;4889968;29;20209;-70
2023/02/09 08:38:18;;;;;;;11.90;7.20;;;2.20;99.90;;;;;;4883012;29;20676;-70
2023/02/09 08:40:44;;;;;;;15.43;8.67;;;3.30;99.90;;;;;;4885722;29;20443;-70
2023/02/09 08:43:11;;;;;;;16.20;8.70;;;3.80;99.90;;;;;;4894243;29;20456;-70
2023/02/09 08:45:38;;;;;;;12.57;8.83;;;3.90;99.90;;;;;;4889890;29;20226;-70
2023/02/09 08:48:10;;;;;;;16.00;8.90;;;3.30;99.90;;;;;;4890223;29;20456;-70
2023/02/09 08:50:37;;;;;;;10.30;7.60;;;3.00;99.90;;;;;;4883610;29;20426;-71
2023/02/09 08:53:03;;;;;;;14.93;11.03;;;1.60;99.90;;;;;;4889940;29;20978;-70
2023/02/09 08:55:30;;;;;;;13.87;8.23;;;1.50;99.90;;;;;;4881541;29;20429;-70
2023/02/09 08:57:55;;;;;;;11.60;7.47;;;1.30;99.90;;;;;;4890003;29;20437;-69
2023/02/09 09:00:21;;;;;;;20.40;7.77;;;2.20;99.90;;;;;;4889155;29;20560;-70
2023/02/09 09:02:46;;;;;;;13.93;9.97;;;3.20;99.90;;;;;;4891231;29;20311;-70
2023/02/09 09:05:12;;;;;;;12.77;9.67;;;3.20;99.90;;;;;;4895672;29;20204;-70
2023/02/09 09:07:38;;;;;;;13.50;7.97;;;3.30;99.90;;;;;;4882320;29;20331;-70
2023/02/09 09:10:04;;;;;;;14.67;8.50;;;3.00;99.90;;;;;;4889090;29;20919;-70
2023/02/09 09:12:30;;;;;;;15.40;10.17;;;2.80;99.90;;;;;;4881940;29;20212;-71
2023/02/09 09:14:56;;;;;;;11.23;7.77;;;2.70;99.90;;;;;;4889002;29;20448;-71
2023/02/09 09:17:22;;;;;;;15.17;8.57;;;3.10;99.90;;;;;;4892682;29;20440;-70
2023/02/09 09:19:47;;;;;;;12.43;8.30;;;3.30;99.90;;;;;;4878281;29;20181;-71
2023/02/09 09:22:13;;;;;;;11.90;9.27;;;4.20;99.90;;;;;;4893721;29;20196;-70
2023/02/09 09:24:39;;;;;;;14.03;9.30;;;4.30;99.90;;;;;;4881477;29;20744;-70
2023/02/09 09:27:07;;;;;;;11.10;8.10;;;4.20;99.90;;;;;;4894704;29;20188;-71
2023/02/09 09:29:33;;;;;;;16.30;7.93;;;3.30;99.90;;;;;;4879920;29;20984;-70
2023/02/09 09:31:59;;;;;;;15.27;8.27;;;2.80;99.90;;;;;;4888729;29;20432;-70
2023/02/09 09:34:25;;;;;;;16.87;9.20;;;2.50;99.90;;;;;;4886253;29;20426;-70
2023/02/09 09:36:51;;;;;;;15.83;8.73;;;2.50;99.90;;;;;;4888526;29;20499;-70
2023/02/09 09:39:17;;;;;;;17.73;10.00;;;2.90;99.90;;;;;;4894345;29;20192;-70
2023/02/09 09:41:46;;;;;;;16.60;8.47;;;2.50;99.90;;;;;;4881165;29;20197;-70
2023/02/09 09:44:17;;;;;;;15.03;9.60;;;2.00;99.90;;;;;;4883622;29;20503;-71
2023/02/09 09:46:49;;;;;;;14.63;9.70;;;2.10;99.90;;;;;;4882435;29;20436;-71
2023/02/09 09:49:25;;;;;;;10.23;8.37;;;2.40;99.90;;;;;;4891404;29;20908;-70
2023/02/09 09:52:08;;;;;;;11.10;7.40;;;2.30;99.90;;;;;;4884995;29;20426;-71
2023/02/09 09:54:35;;;;;;;12.00;8.23;;;2.20;99.90;;;;;;4886056;29;20435;-70
2023/02/09 09:57:01;;;;;;;11.90;7.30;;;2.10;99.90;;;;;;4883455;29;20445;-70
2023/02/09 09:59:38;;;;;;;16.70;8.40;;;2.40;99.90;;;;;;4879564;29;20449;-72
2023/02/09 10:02:33;;;;;;;12.53;8.60;;;2.60;99.90;;;;;;4890767;29;20555;-70
2023/02/09 10:05:19;;;;;;;12.10;7.50;;;2.90;99.90;;;;;;4885730;29;20779;-70
2023/02/09 10:07:52;;;;;;;14.83;8.07;;;2.10;99.90;;;;;;4884515;29;20472;-70
2023/02/09 10:10:36;;;;;;;12.07;8.00;;;2.00;99.90;;;;;;4882926;29;20513;-71
2023/02/09 10:13:06;;;;;;;14.03;7.43;;;1.90;99.90;;;;;;4887719;29;20409;-70
2023/02/09 10:15:34;;;;;;;11.30;7.53;;;2.00;99.90;;;;;;4897462;29;20463;-70
2023/02/09 10:18:01;;;;;;;12.33;8.40;;;2.10;99.90;;;;;;4893791;29;20439;-70
2023/02/09 10:20:49;;;;;;;10.53;7.63;;;2.10;99.90;;;;;;4895081;29;20792;-70
2023/02/09 10:23:22;;;;;;;10.83;6.70;;;2.00;99.90;;;;;;4885267;29;20418;-71
2023/02/09 10:26:07;;;;;;;13.20;7.40;;;1.90;99.90;;;;;;4886438;29;20416;-71
2023/02/09 10:28:39;;;;;;;14.77;6.83;;;1.80;99.90;;;;;;4877048;29;20514;-70
2023/02/09 10:31:19;;;;;;;14.07;7.27;;;1.70;99.90;;;;;;4884706;29;20885;-70
2023/02/09 10:33:56;;;;;;;11.53;6.80;;;1.70;99.90;;;;;;4885393;29;20438;-71
2023/02/09 10:36:31;;;;;;;8.40;6.37;;;1.70;99.90;;;;;;4882927;29;20428;-71
2023/02/09 10:39:29;;;;;;;8.33;6.20;;;1.80;99.90;;;;;;4889218;29;20938;-71
2023/02/09 10:41:58;;;;;;;8.20;6.83;;;1.90;99.90;;;;;;4888465;29;20472;-71
2023/02/09 10:44:27;;;;;;;14.03;6.47;;;1.90;99.90;;;;;;4892837;29;21002;-71
2023/02/09 10:47:28;;;;;;;9.47;5.40;;;1.80;99.90;;;;;;4889808;29;20433;-71
2023/02/09 10:50:11;;;;;;;12.63;7.17;;;2.00;99.90;;;;;;4886378;29;20464;-71
2023/02/09 10:53:14;;;;;;;10.83;6.83;;;2.30;99.90;;;;;;4888280;29;20566;-71
2023/02/09 10:55:41;;;;;;;10.73;7.33;;;2.30;99.90;;;;;;4853542;29;20418;-70
2023/02/09 10:58:10;;;;;;;8.10;6.23;;;2.20;99.90;;;;;;4876830;29;20568;-72
2023/02/09 11:00:54;;;;;;;12.03;6.17;;;2.20;99.90;;;;;;4886781;29;20882;-71
2023/02/09 11:03:25;;;;;;;12.13;7.33;;;2.20;99.90;;;;;;4893555;29;20983;-70
2023/02/09 11:05:59;;;;;;;8.60;6.50;;;2.30;99.90;;;;;;4883968;29;20435;-70
2023/02/09 11:08:36;;;;;;;11.83;5.60;;;2.50;99.90;;;;;;4897711;29;21042;-70
2023/02/09 11:11:25;;;;;;;7.60;6.20;;;2.60;99.90;;;;;;4886986;29;20429;-71
2023/02/09 11:13:50;;;;;;;8.93;6.30;;;2.60;99.90;;;;;;4889088;29;20531;-71
2023/02/09 11:16:55;;;;;;;10.13;5.13;;;2.40;99.90;;;;;;4888195;29;20499;-70
2023/02/09 11:19:45;;;;;;;9.30;6.00;;;2.50;99.90;;;;;;4870752;29;20343;-71
2023/02/09 11:22:20;;;;;;;8.70;6.00;;;2.40;99.90;;;;;;4887113;29;20527;-71
2023/02/09 11:24:59;;;;;;;7.90;4.80;;;2.50;99.90;;;;;;4888394;29;20459;-70
2023/02/09 11:27:34;;;;;;;8.30;6.47;;;2.40;99.90;;;;;;4892870;29;20432;-71
2023/02/09 11:30:03;;;;;;;9.43;6.33;;;2.50;99.90;;;;;;4892603;29;20416;-71
2023/02/09 11:33:06;;;;;;;9.90;7.50;;;2.50;99.90;;;;;;4891388;29;20508;-70
2023/02/09 11:35:55;;;;;;;8.27;5.20;;;2.60;99.90;;;;;;4861396;29;20520;-70
2023/02/09 11:38:43;;;;;;;8.50;6.30;;;2.60;99.90;;;;;;4882297;29;20453;-71
2023/02/09 11:44:02;;;;;;;12.60;7.57;;;2.60;99.90;;;;;;4890036;29;20767;-71
2023/02/09 11:46:32;;;;;;;10.60;6.97;;;2.60;99.90;;;;;;4887790;29;20418;-70
2023/02/09 11:49:03;;;;;;;12.13;6.57;;;2.70;99.90;;;;;;4900365;29;20503;-70
2023/02/09 11:51:31;;;;;;;9.10;6.90;;;2.70;99.90;;;;;;4889394;29;20416;-70
2023/02/09 11:54:16;;;;;;;13.20;6.70;;;2.80;99.90;;;;;;4887037;29;20431;-70
2023/02/09 11:56:45;;;;;;;8.90;6.70;;;2.80;99.90;;;;;;4893526;29;20501;-70
2023/02/09 11:59:29;;;;;;;10.33;6.90;;;3.00;99.90;;;;;;4886317;29;20520;-70
2023/02/09 12:02:13;;;;;;;9.73;7.07;;;3.10;99.90;;;;;;4893832;29;20456;-70
2023/02/09 12:04:42;;;;;;;7.80;5.57;;;3.10;99.90;;;;;;4889097;29;20409;-69
2023/02/09 12:07:26;;;;;;;10.13;6.40;;;3.20;99.90;;;;;;4889325;29;20448;-70
2023/02/09 12:09:56;;;;;;;12.53;6.60;;;3.10;99.90;;;;;;4886599;29;20414;-69
2023/02/09 12:12:52;;;;;;;11.83;6.60;;;3.20;99.90;;;;;;4895909;29;20517;-70
2023/02/09 12:15:48;;;;;;;10.60;6.23;;;3.30;99.90;;;;;;4886028;29;20460;-70
2023/02/09 12:18:18;;;;;;;8.07;6.17;;;3.40;99.90;;;;;;4886878;29;20536;-69
2023/02/09 12:20:56;;;;;;;8.50;6.00;;;3.30;99.90;;;;;;4894090;29;20483;-70
2023/02/09 12:23:41;;;;;;;7.23;5.33;;;3.30;99.90;;;;;;4887272;29;20444;-69
2023/02/09 12:26:35;;;;;;;13.77;5.43;;;3.30;99.90;;;;;;4890889;29;20413;-70
2023/02/09 12:29:28;;;;;;;10.83;5.40;;;3.50;99.90;;;;;;4877173;29;20409;-71
2023/02/09 12:32:03;;;;;;;20.97;5.37;;;3.40;99.90;;;;;;4891633;29;20504;-70
2023/02/09 12:35:21;;;;;;;8.43;5.67;;;3.20;99.90;;;;;;4891186;29;20454;-71
2023/02/09 12:38:12;;;;;;;9.00;5.30;;;3.20;99.90;;;;;;4871656;29;20445;-70
2023/02/09 12:40:37;;;;;;;10.27;5.90;;;3.20;99.90;;;;;;4886672;29;20420;-70
2023/02/09 12:43:25;;;;;;;9.27;5.30;;;3.30;99.90;;;;;;4892257;29;20463;-70
2023/02/09 12:46:20;;;;;;;7.17;5.33;;;3.40;99.90;;;;;;4883435;29;20544;-70
2023/02/09 12:49:00;;;;;;;8.77;5.30;;;3.50;99.90;;;;;;4887333;29;20780;-69
2023/02/09 12:51:48;;;;;;;8.03;6.50;;;3.50;99.90;;;;;;4890845;29;20911;-70
2023/02/09 12:54:33;;;;;;;11.33;6.00;;;3.40;99.90;;;;;;4897964;29;20428;-70
2023/02/09 12:57:14;;;;;;;6.73;5.20;;;3.40;99.90;;;;;;4889215;29;20532;-70
2023/02/09 12:59:49;;;;;;;8.50;5.70;;;3.40;99.90;;;;;;4886827;29;20500;-69
2023/02/09 13:02:28;;;;;;;9.23;5.30;;;3.50;99.90;;;;;;4881071;29;20516;-69
2023/02/09 13:05:07;;;;;;;10.13;6.03;;;3.60;99.90;;;;;;4888423;29;20421;-70
2023/02/09 13:08:07;;;;;;;6.53;5.80;;;3.80;99.90;;;;;;4892674;29;20468;-69
2023/02/09 13:10:47;;;;;;;7.33;5.40;;;3.80;99.90;;;;;;4891547;29;20413;-66